sensor_id;sensor_type;location;lat;lon;timestamp;P1;durP1;ratioP1;P2;durP2;ratioP2
17921;SDS011;9086;50.966;3.144;2023-02-26T00:01:53;6.83;;;2.40;;
17921;SDS011;9086;50.966;3.144;2023-02-26T00:04:22;6.17;;;2.10;;
17921;SDS011;9086;50.966;3.144;2023-02-26T00:06:48;5.30;;;2.13;;
17921;SDS011;9086;50.966;3.144;2023-02-26T00:09:17;7.67;;;2.30;;
17921;SDS011;9086;50.966;3.144;2023-02-26T00:11:44;10.57;;;2.57;;
17921;SDS011;9086;50.966;3.144;2023-02-26T00:14:11;6.40;;;2.43;;
17921;SDS011;9086;50.966;3.144;2023-02-26T00:16:38;10.63;;;2.37;;
17921;SDS011;9086;50.966;3.144;2023-02-26T00:19:05;6.27;;;1.90;;
17921;SDS011;9086;50.966;3.144;2023-02-26T00:21:32;4.93;;;1.73;;
17921;SDS011;9086;50.966;3.144;2023-02-26T00:23:59;4.07;;;1.90;;
17921;SDS011;9086;50.966;3.144;2023-02-26T00:26:27;9.53;;;2.00;;
17921;SDS011;9086;50.966;3.144;2023-02-26T00:28:53;6.53;;;1.70;;
17921;SDS011;9086;50.966;3.144;2023-02-26T00:31:19;7.17;;;2.30;;
17921;SDS011;9086;50.966;3.144;2023-02-26T00:33:48;4.33;;;1.57;;
17921;SDS011;9086;50.966;3.144;2023-02-26T00:36:22;7.27;;;2.10;;
17921;SDS011;9086;50.966;3.144;2023-02-26T00:38:55;8.03;;;2.20;;
17921;SDS011;9086;50.966;3.144;2023-02-26T00:41:23;6.23;;;1.93;;
17921;SDS011;9086;50.966;3.144;2023-02-26T00:43:49;8.43;;;2.30;;
17921;SDS011;9086;50.966;3.144;2023-02-26T00:51:30;4.27;;;1.60;;
17921;SDS011;9086;50.966;3.144;2023-02-26T00:54:00;5.23;;;1.87;;
17921;SDS011;9086;50.966;3.144;2023-02-26T00:56:28;3.53;;;1.80;;
17921;SDS011;9086;50.966;3.144;2023-02-26T00:58:54;3.93;;;1.80;;
17921;SDS011;9086;50.966;3.144;2023-02-26T01:01:20;4.00;;;1.67;;
17921;SDS011;9086;50.966;3.144;2023-02-26T01:03:46;7.43;;;1.90;;
17921;SDS011;9086;50.966;3.144;2023-02-26T01:06:13;4.87;;;1.43;;
17921;SDS011;9086;50.966;3.144;2023-02-26T01:08:42;7.00;;;1.70;;
17921;SDS011;9086;50.966;3.144;2023-02-26T01:11:09;8.10;;;2.07;;
17921;SDS011;9086;50.966;3.144;2023-02-26T01:13:35;6.03;;;1.87;;
17921;SDS011;9086;50.966;3.144;2023-02-26T01:16:04;6.37;;;2.10;;
17921;SDS011;9086;50.966;3.144;2023-02-26T01:18:32;10.37;;;2.00;;
17921;SDS011;9086;50.966;3.144;2023-02-26T01:21:03;5.13;;;1.93;;
17921;SDS011;9086;50.966;3.144;2023-02-26T01:23:34;6.60;;;2.33;;
17921;SDS011;9086;50.966;3.144;2023-02-26T01:26:09;7.87;;;1.93;;
17921;SDS011;9086;50.966;3.144;2023-02-26T01:28:37;8.50;;;1.97;;
17921;SDS011;9086;50.966;3.144;2023-02-26T01:31:04;12.20;;;2.23;;
17921;SDS011;9086;50.966;3.144;2023-02-26T01:33:43;7.47;;;2.57;;
17921;SDS011;9086;50.966;3.144;2023-02-26T01:36:13;4.10;;;1.70;;
17921;SDS011;9086;50.966;3.144;2023-02-26T01:41:42;4.73;;;1.63;;
17921;SDS011;9086;50.966;3.144;2023-02-26T01:49:07;9.40;;;2.50;;
17921;SDS011;9086;50.966;3.144;2023-02-26T01:54:09;4.53;;;1.43;;
17921;SDS011;9086;50.966;3.144;2023-02-26T01:56:35;3.27;;;1.40;;
17921;SDS011;9086;50.966;3.144;2023-02-26T01:59:01;6.73;;;1.90;;
17921;SDS011;9086;50.966;3.144;2023-02-26T02:01:30;6.00;;;1.43;;
17921;SDS011;9086;50.966;3.144;2023-02-26T02:03:56;7.60;;;1.67;;
17921;SDS011;9086;50.966;3.144;2023-02-26T02:06:23;6.07;;;1.60;;
17921;SDS011;9086;50.966;3.144;2023-02-26T02:08:49;5.10;;;1.70;;
17921;SDS011;9086;50.966;3.144;2023-02-26T02:11:15;5.33;;;1.43;;
17921;SDS011;9086;50.966;3.144;2023-02-26T02:14:04;4.57;;;1.50;;
17921;SDS011;9086;50.966;3.144;2023-02-26T02:16:38;4.47;;;1.60;;
17921;SDS011;9086;50.966;3.144;2023-02-26T02:24:12;3.33;;;1.47;;
17921;SDS011;9086;50.966;3.144;2023-02-26T02:29:30;9.60;;;1.93;;
17921;SDS011;9086;50.966;3.144;2023-02-26T02:32:18;9.73;;;2.80;;
17921;SDS011;9086;50.966;3.144;2023-02-26T02:35:04;8.40;;;2.30;;
17921;SDS011;9086;50.966;3.144;2023-02-26T02:37:35;3.97;;;1.60;;
17921;SDS011;9086;50.966;3.144;2023-02-26T02:40:08;4.30;;;1.60;;
17921;SDS011;9086;50.966;3.144;2023-02-26T02:45:09;6.37;;;1.63;;
17921;SDS011;9086;50.966;3.144;2023-02-26T02:47:37;3.30;;;1.60;;
17921;SDS011;9086;50.966;3.144;2023-02-26T02:52:50;3.83;;;1.33;;
17921;SDS011;9086;50.966;3.144;2023-02-26T02:55:19;5.37;;;1.70;;
17921;SDS011;9086;50.966;3.144;2023-02-26T02:57:50;6.33;;;1.63;;
17921;SDS011;9086;50.966;3.144;2023-02-26T03:00:18;7.73;;;1.97;;
17921;SDS011;9086;50.966;3.144;2023-02-26T03:03:02;4.57;;;1.77;;
17921;SDS011;9086;50.966;3.144;2023-02-26T03:05:31;8.53;;;1.63;;
17921;SDS011;9086;50.966;3.144;2023-02-26T03:08:20;7.40;;;1.33;;
17921;SDS011;9086;50.966;3.144;2023-02-26T03:10:43;5.53;;;1.53;;
17921;SDS011;9086;50.966;3.144;2023-02-26T03:13:16;3.73;;;1.10;;
17921;SDS011;9086;50.966;3.144;2023-02-26T03:18:30;3.57;;;1.40;;
17921;SDS011;9086;50.966;3.144;2023-02-26T03:23:28;3.83;;;1.03;;
17921;SDS011;9086;50.966;3.144;2023-02-26T03:26:02;3.27;;;1.23;;
17921;SDS011;9086;50.966;3.144;2023-02-26T03:30:57;5.13;;;1.23;;
17921;SDS011;9086;50.966;3.144;2023-02-26T03:33:30;5.93;;;1.50;;
17921;SDS011;9086;50.966;3.144;2023-02-26T03:36:17;4.07;;;1.30;;
17921;SDS011;9086;50.966;3.144;2023-02-26T03:39:04;6.67;;;2.60;;
17921;SDS011;9086;50.966;3.144;2023-02-26T03:41:34;3.00;;;1.30;;
17921;SDS011;9086;50.966;3.144;2023-02-26T03:44:17;4.80;;;1.10;;
17921;SDS011;9086;50.966;3.144;2023-02-26T03:46:45;4.27;;;1.10;;
17921;SDS011;9086;50.966;3.144;2023-02-26T03:49:14;3.97;;;1.00;;
17921;SDS011;9086;50.966;3.144;2023-02-26T03:51:42;4.23;;;1.00;;
17921;SDS011;9086;50.966;3.144;2023-02-26T03:54:18;6.43;;;1.53;;
17921;SDS011;9086;50.966;3.144;2023-02-26T03:56:46;4.63;;;1.07;;
17921;SDS011;9086;50.966;3.144;2023-02-26T03:59:12;2.83;;;1.03;;
17921;SDS011;9086;50.966;3.144;2023-02-26T04:04:16;4.30;;;1.03;;
17921;SDS011;9086;50.966;3.144;2023-02-26T04:06:43;3.57;;;1.40;;
17921;SDS011;9086;50.966;3.144;2023-02-26T04:09:10;3.27;;;1.10;;
17921;SDS011;9086;50.966;3.144;2023-02-26T04:11:36;4.97;;;1.07;;
17921;SDS011;9086;50.966;3.144;2023-02-26T04:14:03;3.03;;;1.00;;
17921;SDS011;9086;50.966;3.144;2023-02-26T04:16:29;6.57;;;1.47;;
17921;SDS011;9086;50.966;3.144;2023-02-26T04:18:55;7.20;;;1.43;;
17921;SDS011;9086;50.966;3.144;2023-02-26T04:21:21;7.90;;;1.00;;
17921;SDS011;9086;50.966;3.144;2023-02-26T04:23:48;1.77;;;0.77;;
17921;SDS011;9086;50.966;3.144;2023-02-26T04:26:14;3.40;;;1.07;;
17921;SDS011;9086;50.966;3.144;2023-02-26T04:28:40;2.13;;;0.63;;
17921;SDS011;9086;50.966;3.144;2023-02-26T04:31:06;4.43;;;0.97;;
17921;SDS011;9086;50.966;3.144;2023-02-26T04:33:32;2.20;;;0.77;;
17921;SDS011;9086;50.966;3.144;2023-02-26T04:35:59;3.67;;;0.70;;
17921;SDS011;9086;50.966;3.144;2023-02-26T04:38:25;2.47;;;1.10;;
17921;SDS011;9086;50.966;3.144;2023-02-26T04:40:51;3.13;;;1.20;;
17921;SDS011;9086;50.966;3.144;2023-02-26T04:43:17;4.00;;;0.90;;
17921;SDS011;9086;50.966;3.144;2023-02-26T04:45:44;4.57;;;1.80;;
17921;SDS011;9086;50.966;3.144;2023-02-26T04:48:11;3.93;;;1.90;;
17921;SDS011;9086;50.966;3.144;2023-02-26T04:50:37;3.10;;;1.10;;
17921;SDS011;9086;50.966;3.144;2023-02-26T04:53:03;2.80;;;0.97;;
17921;SDS011;9086;50.966;3.144;2023-02-26T04:55:29;3.20;;;0.80;;
17921;SDS011;9086;50.966;3.144;2023-02-26T04:57:55;2.87;;;0.70;;
17921;SDS011;9086;50.966;3.144;2023-02-26T05:00:21;3.70;;;0.80;;
17921;SDS011;9086;50.966;3.144;2023-02-26T05:02:47;1.60;;;0.70;;
17921;SDS011;9086;50.966;3.144;2023-02-26T05:05:13;7.20;;;1.03;;
17921;SDS011;9086;50.966;3.144;2023-02-26T05:07:38;3.10;;;0.70;;
17921;SDS011;9086;50.966;3.144;2023-02-26T05:10:05;2.20;;;0.90;;
17921;SDS011;9086;50.966;3.144;2023-02-26T05:12:31;6.13;;;0.70;;
17921;SDS011;9086;50.966;3.144;2023-02-26T05:14:57;5.70;;;1.03;;
17921;SDS011;9086;50.966;3.144;2023-02-26T05:17:23;3.37;;;1.20;;
17921;SDS011;9086;50.966;3.144;2023-02-26T05:19:49;1.57;;;0.73;;
17921;SDS011;9086;50.966;3.144;2023-02-26T05:22:15;3.20;;;1.20;;
17921;SDS011;9086;50.966;3.144;2023-02-26T05:24:41;5.53;;;1.23;;
17921;SDS011;9086;50.966;3.144;2023-02-26T05:27:07;0.90;;;0.40;;
17921;SDS011;9086;50.966;3.144;2023-02-26T05:29:33;1.33;;;0.47;;
17921;SDS011;9086;50.966;3.144;2023-02-26T05:32:01;2.67;;;0.40;;
17921;SDS011;9086;50.966;3.144;2023-02-26T05:34:27;3.37;;;0.70;;
17921;SDS011;9086;50.966;3.144;2023-02-26T05:36:53;5.03;;;0.70;;
17921;SDS011;9086;50.966;3.144;2023-02-26T05:39:19;1.17;;;0.50;;
17921;SDS011;9086;50.966;3.144;2023-02-26T05:41:45;4.93;;;0.90;;
17921;SDS011;9086;50.966;3.144;2023-02-26T05:44:12;2.83;;;0.70;;
17921;SDS011;9086;50.966;3.144;2023-02-26T05:46:38;2.83;;;1.13;;
17921;SDS011;9086;50.966;3.144;2023-02-26T05:49:04;3.53;;;0.70;;
17921;SDS011;9086;50.966;3.144;2023-02-26T05:51:30;2.00;;;0.70;;
17921;SDS011;9086;50.966;3.144;2023-02-26T05:53:56;0.20;;;0.10;;
17921;SDS011;9086;50.966;3.144;2023-02-26T05:56:22;2.07;;;0.60;;
17921;SDS011;9086;50.966;3.144;2023-02-26T05:58:47;0.93;;;0.53;;
17921;SDS011;9086;50.966;3.144;2023-02-26T06:01:13;4.60;;;1.00;;
17921;SDS011;9086;50.966;3.144;2023-02-26T06:03:39;6.93;;;0.97;;
17921;SDS011;9086;50.966;3.144;2023-02-26T06:06:08;2.43;;;0.77;;
17921;SDS011;9086;50.966;3.144;2023-02-26T06:08:34;2.53;;;0.60;;
17921;SDS011;9086;50.966;3.144;2023-02-26T06:11:01;1.97;;;0.73;;
17921;SDS011;9086;50.966;3.144;2023-02-26T06:13:27;3.93;;;0.93;;
17921;SDS011;9086;50.966;3.144;2023-02-26T06:15:53;4.83;;;1.00;;
17921;SDS011;9086;50.966;3.144;2023-02-26T06:18:19;1.53;;;0.80;;
17921;SDS011;9086;50.966;3.144;2023-02-26T06:20:45;4.20;;;1.30;;
17921;SDS011;9086;50.966;3.144;2023-02-26T06:23:10;4.97;;;1.00;;
17921;SDS011;9086;50.966;3.144;2023-02-26T06:25:39;4.63;;;1.73;;
17921;SDS011;9086;50.966;3.144;2023-02-26T06:28:05;5.07;;;1.63;;
17921;SDS011;9086;50.966;3.144;2023-02-26T06:30:31;4.60;;;0.90;;
17921;SDS011;9086;50.966;3.144;2023-02-26T06:32:57;2.47;;;0.83;;
17921;SDS011;9086;50.966;3.144;2023-02-26T06:35:22;3.60;;;0.97;;
17921;SDS011;9086;50.966;3.144;2023-02-26T06:37:48;5.07;;;1.20;;
17921;SDS011;9086;50.966;3.144;2023-02-26T06:40:15;6.30;;;1.53;;
17921;SDS011;9086;50.966;3.144;2023-02-26T06:42:41;3.60;;;1.40;;
17921;SDS011;9086;50.966;3.144;2023-02-26T06:45:07;2.30;;;1.07;;
17921;SDS011;9086;50.966;3.144;2023-02-26T06:47:33;3.13;;;1.00;;
17921;SDS011;9086;50.966;3.144;2023-02-26T06:49:59;4.20;;;1.10;;
17921;SDS011;9086;50.966;3.144;2023-02-26T06:52:26;2.00;;;0.80;;
17921;SDS011;9086;50.966;3.144;2023-02-26T06:54:52;3.57;;;1.33;;
17921;SDS011;9086;50.966;3.144;2023-02-26T06:57:18;3.57;;;1.20;;
17921;SDS011;9086;50.966;3.144;2023-02-26T06:59:44;3.30;;;1.77;;
17921;SDS011;9086;50.966;3.144;2023-02-26T07:02:15;7.30;;;1.80;;
17921;SDS011;9086;50.966;3.144;2023-02-26T07:04:41;3.40;;;1.10;;
17921;SDS011;9086;50.966;3.144;2023-02-26T07:07:07;4.80;;;1.13;;
17921;SDS011;9086;50.966;3.144;2023-02-26T07:09:33;3.97;;;1.97;;
17921;SDS011;9086;50.966;3.144;2023-02-26T07:11:59;6.67;;;1.10;;
17921;SDS011;9086;50.966;3.144;2023-02-26T07:14:25;4.53;;;1.03;;
17921;SDS011;9086;50.966;3.144;2023-02-26T07:16:51;7.43;;;1.13;;
17921;SDS011;9086;50.966;3.144;2023-02-26T07:19:17;3.63;;;1.53;;
17921;SDS011;9086;50.966;3.144;2023-02-26T07:21:43;6.27;;;2.03;;
17921;SDS011;9086;50.966;3.144;2023-02-26T07:24:09;3.47;;;1.70;;
17921;SDS011;9086;50.966;3.144;2023-02-26T07:26:35;1.70;;;1.60;;
17921;SDS011;9086;50.966;3.144;2023-02-26T07:29:01;5.23;;;1.17;;
17921;SDS011;9086;50.966;3.144;2023-02-26T07:31:27;2.23;;;1.00;;
17921;SDS011;9086;50.966;3.144;2023-02-26T07:33:53;7.30;;;0.97;;
17921;SDS011;9086;50.966;3.144;2023-02-26T07:36:19;3.80;;;1.10;;
17921;SDS011;9086;50.966;3.144;2023-02-26T07:38:45;1.77;;;0.90;;
17921;SDS011;9086;50.966;3.144;2023-02-26T07:41:11;3.43;;;1.20;;
17921;SDS011;9086;50.966;3.144;2023-02-26T07:43:37;7.57;;;1.70;;
17921;SDS011;9086;50.966;3.144;2023-02-26T07:46:03;3.20;;;0.77;;
17921;SDS011;9086;50.966;3.144;2023-02-26T07:48:29;3.83;;;2.30;;
17921;SDS011;9086;50.966;3.144;2023-02-26T07:50:55;5.93;;;0.87;;
17921;SDS011;9086;50.966;3.144;2023-02-26T07:53:21;1.90;;;0.87;;
17921;SDS011;9086;50.966;3.144;2023-02-26T07:55:47;3.73;;;0.90;;
17921;SDS011;9086;50.966;3.144;2023-02-26T07:58:13;2.93;;;0.83;;
17921;SDS011;9086;50.966;3.144;2023-02-26T08:00:40;3.73;;;0.83;;
17921;SDS011;9086;50.966;3.144;2023-02-26T08:03:06;4.23;;;1.30;;
17921;SDS011;9086;50.966;3.144;2023-02-26T08:05:32;2.47;;;0.83;;
17921;SDS011;9086;50.966;3.144;2023-02-26T08:07:58;3.80;;;0.73;;
17921;SDS011;9086;50.966;3.144;2023-02-26T08:10:26;1.80;;;0.80;;
17921;SDS011;9086;50.966;3.144;2023-02-26T08:12:52;2.87;;;0.93;;
17921;SDS011;9086;50.966;3.144;2023-02-26T08:15:18;1.00;;;0.23;;
17921;SDS011;9086;50.966;3.144;2023-02-26T08:17:44;1.97;;;0.40;;
17921;SDS011;9086;50.966;3.144;2023-02-26T08:20:10;1.50;;;0.83;;
17921;SDS011;9086;50.966;3.144;2023-02-26T08:22:38;4.33;;;1.20;;
17921;SDS011;9086;50.966;3.144;2023-02-26T08:25:04;2.87;;;0.80;;
17921;SDS011;9086;50.966;3.144;2023-02-26T08:27:30;2.83;;;1.00;;
17921;SDS011;9086;50.966;3.144;2023-02-26T08:29:56;3.67;;;1.17;;
17921;SDS011;9086;50.966;3.144;2023-02-26T08:32:22;4.93;;;0.83;;
17921;SDS011;9086;50.966;3.144;2023-02-26T08:34:50;1.73;;;0.73;;
17921;SDS011;9086;50.966;3.144;2023-02-26T08:37:16;1.53;;;0.80;;
17921;SDS011;9086;50.966;3.144;2023-02-26T08:39:45;3.53;;;0.80;;
17921;SDS011;9086;50.966;3.144;2023-02-26T08:42:11;3.87;;;0.67;;
17921;SDS011;9086;50.966;3.144;2023-02-26T08:44:40;3.40;;;1.23;;
17921;SDS011;9086;50.966;3.144;2023-02-26T08:47:06;1.73;;;0.70;;
17921;SDS011;9086;50.966;3.144;2023-02-26T08:49:32;1.90;;;0.83;;
17921;SDS011;9086;50.966;3.144;2023-02-26T08:51:58;3.27;;;1.00;;
17921;SDS011;9086;50.966;3.144;2023-02-26T08:54:24;2.53;;;0.43;;
17921;SDS011;9086;50.966;3.144;2023-02-26T08:56:50;1.73;;;0.50;;
17921;SDS011;9086;50.966;3.144;2023-02-26T08:59:21;3.07;;;0.63;;
17921;SDS011;9086;50.966;3.144;2023-02-26T09:01:47;3.93;;;0.83;;
17921;SDS011;9086;50.966;3.144;2023-02-26T09:04:13;0.40;;;0.20;;
17921;SDS011;9086;50.966;3.144;2023-02-26T09:06:39;0.50;;;0.20;;
17921;SDS011;9086;50.966;3.144;2023-02-26T09:09:05;1.10;;;0.50;;
17921;SDS011;9086;50.966;3.144;2023-02-26T09:11:32;1.90;;;0.70;;
17921;SDS011;9086;50.966;3.144;2023-02-26T09:13:58;1.77;;;0.50;;
17921;SDS011;9086;50.966;3.144;2023-02-26T09:16:26;1.73;;;0.50;;
17921;SDS011;9086;50.966;3.144;2023-02-26T09:18:52;1.20;;;0.90;;
17921;SDS011;9086;50.966;3.144;2023-02-26T09:21:18;3.37;;;0.87;;
17921;SDS011;9086;50.966;3.144;2023-02-26T09:23:44;4.37;;;1.10;;
17921;SDS011;9086;50.966;3.144;2023-02-26T09:26:10;0.20;;;0.20;;
17921;SDS011;9086;50.966;3.144;2023-02-26T09:28:36;1.20;;;0.33;;
17921;SDS011;9086;50.966;3.144;2023-02-26T09:31:02;3.17;;;0.60;;
17921;SDS011;9086;50.966;3.144;2023-02-26T09:33:28;3.67;;;1.17;;
17921;SDS011;9086;50.966;3.144;2023-02-26T09:35:54;0.87;;;0.37;;
17921;SDS011;9086;50.966;3.144;2023-02-26T09:38:20;0.90;;;0.30;;
17921;SDS011;9086;50.966;3.144;2023-02-26T09:45:50;1.00;;;0.67;;
17921;SDS011;9086;50.966;3.144;2023-02-26T09:48:18;2.40;;;0.63;;
17921;SDS011;9086;50.966;3.144;2023-02-26T09:50:47;1.20;;;0.83;;
17921;SDS011;9086;50.966;3.144;2023-02-26T09:53:15;2.43;;;0.67;;
17921;SDS011;9086;50.966;3.144;2023-02-26T09:55:46;2.23;;;0.60;;
17921;SDS011;9086;50.966;3.144;2023-02-26T09:58:21;1.73;;;0.53;;
17921;SDS011;9086;50.966;3.144;2023-02-26T10:00:55;1.20;;;0.30;;
17921;SDS011;9086;50.966;3.144;2023-02-26T10:03:26;2.00;;;1.00;;
17921;SDS011;9086;50.966;3.144;2023-02-26T10:08:49;0.30;;;0.30;;
17921;SDS011;9086;50.966;3.144;2023-02-26T10:11:19;0.87;;;0.50;;
17921;SDS011;9086;50.966;3.144;2023-02-26T10:13:50;4.13;;;0.50;;
17921;SDS011;9086;50.966;3.144;2023-02-26T10:16:17;3.90;;;0.60;;
17921;SDS011;9086;50.966;3.144;2023-02-26T10:18:48;1.47;;;0.50;;
17921;SDS011;9086;50.966;3.144;2023-02-26T10:21:39;3.60;;;0.97;;
17921;SDS011;9086;50.966;3.144;2023-02-26T10:24:10;3.70;;;0.40;;
17921;SDS011;9086;50.966;3.144;2023-02-26T10:26:39;2.10;;;0.67;;
17921;SDS011;9086;50.966;3.144;2023-02-26T10:34:26;1.13;;;0.40;;
17921;SDS011;9086;50.966;3.144;2023-02-26T10:39:36;2.10;;;1.10;;
17921;SDS011;9086;50.966;3.144;2023-02-26T10:42:06;1.03;;;0.40;;
17921;SDS011;9086;50.966;3.144;2023-02-26T10:44:37;1.77;;;0.63;;
17921;SDS011;9086;50.966;3.144;2023-02-26T10:47:11;0.90;;;0.30;;
17921;SDS011;9086;50.966;3.144;2023-02-26T10:49:53;0.77;;;0.20;;
17921;SDS011;9086;50.966;3.144;2023-02-26T10:52:21;0.50;;;0.43;;
17921;SDS011;9086;50.966;3.144;2023-02-26T10:57:29;1.17;;;0.30;;
17921;SDS011;9086;50.966;3.144;2023-02-26T11:00:01;0.53;;;0.13;;
17921;SDS011;9086;50.966;3.144;2023-02-26T11:05:05;0.30;;;0.10;;
17921;SDS011;9086;50.966;3.144;2023-02-26T11:07:31;0.83;;;0.40;;
17921;SDS011;9086;50.966;3.144;2023-02-26T11:09:58;1.93;;;0.60;;
17921;SDS011;9086;50.966;3.144;2023-02-26T11:12:25;1.40;;;0.80;;
17921;SDS011;9086;50.966;3.144;2023-02-26T11:14:52;2.27;;;0.60;;
17921;SDS011;9086;50.966;3.144;2023-02-26T11:17:22;0.73;;;0.30;;
17921;SDS011;9086;50.966;3.144;2023-02-26T11:19:55;0.93;;;0.40;;
17921;SDS011;9086;50.966;3.144;2023-02-26T11:22:22;1.70;;;0.30;;
17921;SDS011;9086;50.966;3.144;2023-02-26T11:24:49;3.20;;;0.57;;
17921;SDS011;9086;50.966;3.144;2023-02-26T11:27:29;0.37;;;0.30;;
17921;SDS011;9086;50.966;3.144;2023-02-26T11:29:57;3.20;;;1.37;;
17921;SDS011;9086;50.966;3.144;2023-02-26T11:32:28;0.97;;;0.30;;
17921;SDS011;9086;50.966;3.144;2023-02-26T11:34:55;1.70;;;0.30;;
17921;SDS011;9086;50.966;3.144;2023-02-26T11:37:27;0.23;;;0.23;;
17921;SDS011;9086;50.966;3.144;2023-02-26T11:39:55;0.60;;;0.37;;
17921;SDS011;9086;50.966;3.144;2023-02-26T11:42:21;1.50;;;0.40;;
17921;SDS011;9086;50.966;3.144;2023-02-26T11:44:48;2.47;;;0.30;;
17921;SDS011;9086;50.966;3.144;2023-02-26T11:47:16;1.37;;;0.30;;
17921;SDS011;9086;50.966;3.144;2023-02-26T11:49:44;0.73;;;0.23;;
17921;SDS011;9086;50.966;3.144;2023-02-26T11:54:38;2.30;;;0.50;;
17921;SDS011;9086;50.966;3.144;2023-02-26T11:57:05;0.93;;;0.60;;
17921;SDS011;9086;50.966;3.144;2023-02-26T11:59:32;1.83;;;0.80;;
17921;SDS011;9086;50.966;3.144;2023-02-26T12:02:20;1.70;;;0.50;;
17921;SDS011;9086;50.966;3.144;2023-02-26T12:04:46;1.40;;;0.30;;
17921;SDS011;9086;50.966;3.144;2023-02-26T12:07:14;0.50;;;0.40;;
17921;SDS011;9086;50.966;3.144;2023-02-26T12:09:40;3.50;;;0.90;;
17921;SDS011;9086;50.966;3.144;2023-02-26T12:14:53;0.67;;;0.50;;
17921;SDS011;9086;50.966;3.144;2023-02-26T12:17:29;0.87;;;0.60;;
17921;SDS011;9086;50.966;3.144;2023-02-26T12:20:06;0.77;;;0.33;;
17921;SDS011;9086;50.966;3.144;2023-02-26T12:30:53;1.43;;;0.30;;
17921;SDS011;9086;50.966;3.144;2023-02-26T12:33:46;0.73;;;0.30;;
17921;SDS011;9086;50.966;3.144;2023-02-26T12:36:22;0.93;;;0.17;;
17921;SDS011;9086;50.966;3.144;2023-02-26T12:38:55;1.13;;;0.67;;
17921;SDS011;9086;50.966;3.144;2023-02-26T12:41:35;0.43;;;0.20;;
17921;SDS011;9086;50.966;3.144;2023-02-26T12:44:11;0.97;;;0.43;;
17921;SDS011;9086;50.966;3.144;2023-02-26T12:46:47;0.37;;;0.23;;
17921;SDS011;9086;50.966;3.144;2023-02-26T12:51:51;0.23;;;0.17;;
17921;SDS011;9086;50.966;3.144;2023-02-26T12:54:23;0.20;;;0.20;;
17921;SDS011;9086;50.966;3.144;2023-02-26T12:57:03;0.50;;;0.20;;
17921;SDS011;9086;50.966;3.144;2023-02-26T12:59:39;3.20;;;0.40;;
17921;SDS011;9086;50.966;3.144;2023-02-26T13:02:16;0.67;;;0.40;;
17921;SDS011;9086;50.966;3.144;2023-02-26T13:13:02;0.37;;;0.37;;
17921;SDS011;9086;50.966;3.144;2023-02-26T13:18:19;1.23;;;0.90;;
17921;SDS011;9086;50.966;3.144;2023-02-26T13:21:14;2.33;;;0.90;;
17921;SDS011;9086;50.966;3.144;2023-02-26T13:23:51;2.23;;;0.50;;
17921;SDS011;9086;50.966;3.144;2023-02-26T13:26:18;0.83;;;0.30;;
17921;SDS011;9086;50.966;3.144;2023-02-26T13:31:12;3.17;;;0.50;;
17921;SDS011;9086;50.966;3.144;2023-02-26T13:33:40;0.77;;;0.50;;
17921;SDS011;9086;50.966;3.144;2023-02-26T13:36:08;2.90;;;0.50;;
17921;SDS011;9086;50.966;3.144;2023-02-26T13:44:11;2.47;;;0.70;;
17921;SDS011;9086;50.966;3.144;2023-02-26T13:49:24;1.57;;;0.37;;
17921;SDS011;9086;50.966;3.144;2023-02-26T13:51:52;2.87;;;1.00;;
17921;SDS011;9086;50.966;3.144;2023-02-26T13:54:30;1.43;;;0.90;;
17921;SDS011;9086;50.966;3.144;2023-02-26T14:04:51;0.63;;;0.50;;
17921;SDS011;9086;50.966;3.144;2023-02-26T14:07:26;1.70;;;0.40;;
17921;SDS011;9086;50.966;3.144;2023-02-26T14:10:03;0.90;;;0.40;;
17921;SDS011;9086;50.966;3.144;2023-02-26T14:12:42;2.63;;;0.80;;
17921;SDS011;9086;50.966;3.144;2023-02-26T14:17:47;1.80;;;0.50;;
17921;SDS011;9086;50.966;3.144;2023-02-26T14:22:46;1.03;;;0.40;;
17921;SDS011;9086;50.966;3.144;2023-02-26T14:25:46;0.97;;;0.40;;
17921;SDS011;9086;50.966;3.144;2023-02-26T14:28:53;1.27;;;0.70;;
17921;SDS011;9086;50.966;3.144;2023-02-26T14:36:19;0.83;;;0.53;;
17921;SDS011;9086;50.966;3.144;2023-02-26T14:38:45;3.30;;;0.70;;
17921;SDS011;9086;50.966;3.144;2023-02-26T14:43:43;2.67;;;0.57;;
17921;SDS011;9086;50.966;3.144;2023-02-26T14:46:10;3.40;;;0.83;;
17921;SDS011;9086;50.966;3.144;2023-02-26T14:48:37;5.03;;;1.33;;
17921;SDS011;9086;50.966;3.144;2023-02-26T14:56:30;0.77;;;0.60;;
17921;SDS011;9086;50.966;3.144;2023-02-26T15:04:12;1.07;;;0.50;;
17921;SDS011;9086;50.966;3.144;2023-02-26T15:19:30;1.20;;;0.53;;
17921;SDS011;9086;50.966;3.144;2023-02-26T15:24:25;2.17;;;0.80;;
17921;SDS011;9086;50.966;3.144;2023-02-26T15:26:56;2.20;;;0.40;;
17921;SDS011;9086;50.966;3.144;2023-02-26T15:29:28;0.40;;;0.10;;
17921;SDS011;9086;50.966;3.144;2023-02-26T15:31:58;0.57;;;0.40;;
17921;SDS011;9086;50.966;3.144;2023-02-26T15:34:30;0.60;;;0.40;;
17921;SDS011;9086;50.966;3.144;2023-02-26T15:36:59;0.50;;;0.30;;
17921;SDS011;9086;50.966;3.144;2023-02-26T15:39:25;0.47;;;0.40;;
17921;SDS011;9086;50.966;3.144;2023-02-26T15:41:51;0.80;;;0.50;;
17921;SDS011;9086;50.966;3.144;2023-02-26T15:44:20;0.97;;;0.50;;
17921;SDS011;9086;50.966;3.144;2023-02-26T15:46:49;1.07;;;0.53;;
17921;SDS011;9086;50.966;3.144;2023-02-26T15:49:21;1.07;;;0.30;;
17921;SDS011;9086;50.966;3.144;2023-02-26T15:51:49;1.13;;;0.50;;
17921;SDS011;9086;50.966;3.144;2023-02-26T15:54:17;0.50;;;0.30;;
17921;SDS011;9086;50.966;3.144;2023-02-26T15:56:44;0.80;;;0.50;;
17921;SDS011;9086;50.966;3.144;2023-02-26T15:59:12;0.73;;;0.50;;
17921;SDS011;9086;50.966;3.144;2023-02-26T16:01:41;1.07;;;0.70;;
17921;SDS011;9086;50.966;3.144;2023-02-26T16:04:11;0.47;;;0.37;;
17921;SDS011;9086;50.966;3.144;2023-02-26T16:06:48;0.40;;;0.30;;
17921;SDS011;9086;50.966;3.144;2023-02-26T16:09:15;2.33;;;0.60;;
17921;SDS011;9086;50.966;3.144;2023-02-26T16:11:42;2.20;;;0.50;;
17921;SDS011;9086;50.966;3.144;2023-02-26T16:14:12;0.53;;;0.43;;
17921;SDS011;9086;50.966;3.144;2023-02-26T16:16:44;0.37;;;0.37;;
17921;SDS011;9086;50.966;3.144;2023-02-26T16:19:12;3.77;;;1.07;;
17921;SDS011;9086;50.966;3.144;2023-02-26T16:21:39;6.63;;;3.53;;
17921;SDS011;9086;50.966;3.144;2023-02-26T16:24:06;2.13;;;0.60;;
17921;SDS011;9086;50.966;3.144;2023-02-26T16:26:42;1.73;;;0.87;;
17921;SDS011;9086;50.966;3.144;2023-02-26T16:29:23;3.70;;;1.40;;
17921;SDS011;9086;50.966;3.144;2023-02-26T16:31:50;0.90;;;0.70;;
17921;SDS011;9086;50.966;3.144;2023-02-26T16:34:39;1.73;;;0.70;;
17921;SDS011;9086;50.966;3.144;2023-02-26T16:39:51;1.33;;;0.70;;
17921;SDS011;9086;50.966;3.144;2023-02-26T16:42:21;1.30;;;0.90;;
17921;SDS011;9086;50.966;3.144;2023-02-26T16:44:56;2.73;;;0.60;;
17921;SDS011;9086;50.966;3.144;2023-02-26T16:47:22;1.67;;;0.40;;
17921;SDS011;9086;50.966;3.144;2023-02-26T16:49:50;1.23;;;1.00;;
17921;SDS011;9086;50.966;3.144;2023-02-26T16:52:21;2.57;;;1.30;;
17921;SDS011;9086;50.966;3.144;2023-02-26T16:54:51;5.10;;;1.33;;
17921;SDS011;9086;50.966;3.144;2023-02-26T16:57:30;2.10;;;0.73;;
17921;SDS011;9086;50.966;3.144;2023-02-26T16:59:58;2.40;;;0.50;;
17921;SDS011;9086;50.966;3.144;2023-02-26T17:02:30;0.73;;;0.70;;
17921;SDS011;9086;50.966;3.144;2023-02-26T17:05:01;3.10;;;1.50;;
17921;SDS011;9086;50.966;3.144;2023-02-26T17:10:07;2.60;;;0.67;;
17921;SDS011;9086;50.966;3.144;2023-02-26T17:12:49;1.57;;;1.00;;
17921;SDS011;9086;50.966;3.144;2023-02-26T17:18:12;3.33;;;1.47;;
17921;SDS011;9086;50.966;3.144;2023-02-26T17:20:39;1.57;;;0.83;;
17921;SDS011;9086;50.966;3.144;2023-02-26T17:23:05;0.70;;;0.70;;
17921;SDS011;9086;50.966;3.144;2023-02-26T17:25:43;3.73;;;0.90;;
17921;SDS011;9086;50.966;3.144;2023-02-26T17:28:20;1.50;;;1.17;;
17921;SDS011;9086;50.966;3.144;2023-02-26T17:30:47;2.20;;;1.13;;
17921;SDS011;9086;50.966;3.144;2023-02-26T17:33:13;2.33;;;0.63;;
17921;SDS011;9086;50.966;3.144;2023-02-26T17:35:39;2.07;;;0.93;;
17921;SDS011;9086;50.966;3.144;2023-02-26T17:38:06;2.27;;;0.80;;
17921;SDS011;9086;50.966;3.144;2023-02-26T17:40:33;4.00;;;1.27;;
17921;SDS011;9086;50.966;3.144;2023-02-26T17:43:03;1.93;;;1.40;;
17921;SDS011;9086;50.966;3.144;2023-02-26T17:45:30;1.47;;;1.17;;